METAR、SPECI、TAF(飛行場実況・予報)


■ METAR、SPECI(飛行場実況)

SPECI RJFG 130114Z 05008KT 350V120 4000 -SHRA BR FEW002 BKN003 BKN007 22/22 Q1005 RMK 2ST002 6ST003 7ST007 A2968
METAR RJFG 130200Z 06008KT 340V130 5000 -SHRA BR FEW002 BKN003 BKN008 22/22 Q1005 RMK 1ST002 6ST003 7CU008 A2968
SPECI RJFG 130238Z 06007KT 020V120 4000 -SHRA BR FEW002 SCT003 BKN005 22/22 Q1005 RMK 2ST002 3ST003 5ST005 A2969
METAR RJFG 130300Z 05006KT 350V100 4000 -SHRA BR FEW002 SCT003 BKN005 22/22 Q1005 RMK 2ST002 3ST003 5ST005 A2968
METAR RJFG 130400Z 05006KT 330V100 5000 -SHRA BR FEW002 SCT003 BKN005 23/22 Q1005 RMK 2ST002 3ST003 5ST005 A2968
METAR RJFG 130500Z 06007KT 340V110 5000 -SHRA BR FEW002 SCT007 BKN010 23/23 Q1004 RMK 1ST002 3ST007 5CU010 A2967
METAR RJFG 130600Z 06007KT 020V110 9999 -SHRA FEW004 SCT005 BKN007 23/22 Q1004 RMK 1ST004 3ST005 5ST007 A2967
METAR RJFG 130700Z 08006KT 040V130 8000 -SHRA FEW002 SCT004 BKN008 23/23 Q1005 RMK 2ST002 4ST004 5CU008 A2969
METAR RJFG 130700Z 08006KT 040V130 8000 -SHRA FEW002 SCT004 BKN008 23/23 Q1005 RMK 2ST002 4ST004 5CU008 A2969
METAR RJFG 130800Z 10008KT 9999 FEW002 SCT003 BKN040 23/23 Q1005 RMK 2ST002 4ST003 5SC040 A2968
METAR RJFG 130900Z 10005KT 070V130 9999 FEW002 SCT008 BKN070 23/22 Q1005 RMK 1ST002 4CU008 5AC070 A2970
SPECI RJFG 132310Z 09007KT 060V130 9999 FEW011 BKN/// 23/21 Q1008 RMK 2CU011 A2977
METAR RJFG 132330Z 09008KT 060V140 9999 FEW010 SCT012 BKN/// 23/21 Q1008 RMK 1CU010 3CU012 A2977
METAR RJFG 140000Z 10007KT 040V120 9999 FEW008 SCT010 BKN/// 24/21 Q1007 RMK 1CU008 4CU010 A2976
METAR RJFG 140100Z 10008KT 050V130 9999 FEW008 BKN011 BKN/// 24/21 Q1008 RMK 1CU008 6CU011 A2978
SPECI RJFG 140146Z 10010KT 060V130 9999 FEW006 BKN008 BKN025 24/21 Q1008 RMK 1ST006 6CU008 7CU025 A2977
METAR RJFG 140200Z 11010KT 9999 FEW006 BKN010 BKN015 24/22 Q1008 RMK 1ST006 5CU010 7CU015 A2978
METAR RJFG 140300Z 11012KT 9999 FEW008 BKN010 BKN/// 24/21 Q1008 RMK 1CU008 6CU010 A2977
METAR RJFG 140400Z 10011KT 9999 FEW008 SCT010 BKN012 24/22 Q1007 RMK 1CU008 3CU010 5CU012 A2975
METAR RJFG 140500Z 10011KT 070V130 9999 FEW010 SCT012 BKN015 25/21 Q1006 RMK 1CU010 3CU012 5CU015 A2973
SPECI RJFG 140543Z 10010KT 070V130 9999 FEW005 SCT007 BKN010 23/22 Q1006 RMK 2ST005 4ST007 5CU010 A2972
METAR RJFG 140600Z 10011KT 9999 FEW005 SCT008 BKN010 24/22 Q1006 RMK 1ST005 4CU008 5CU010 A2972
METAR RJFG 140700Z 10010KT 9999 FEW006 SCT008 BKN010 23/22 Q1006 RMK 1ST006 4CU008 5CU010 A2972
METAR RJFG 140800Z 10008KT 6000 -SHRA FEW002 SCT005 BKN010 22/22 Q1006 RMK 2ST002 4ST005 5CU010 A2972
SPECI RJFG 140852Z 10009KT 2000 R31/2000N -SHRA BR FEW001 SCT003 BKN005 22/22 Q1006 RMK 2ST001 4ST003 5ST005 A2972
METAR RJFG 140900Z 10009KT 1500 R31/2000N -SHRA BR FEW001 SCT002 BKN003 22/22 Q1006 RMK 1ST001 3ST002 5ST003 A2972
SPECI RJFG 140909Z 09007KT 050V120 0500 R31/0550VP2000D -SHRA FG FEW000 SCT001 BKN002 22/22 Q1006 RMK 1ST000 3ST001 5ST002 A2973
SPECI RJFG 140911Z 09007KT 050V120 0600 R31/0450V1600D -SHRA FG FEW000 SCT001 BKN002 22/22 Q1006 RMK 1ST000 3ST001 5ST002 A2973
SPECI RJFG 140920Z 09006KT 030V130 0900 R31/0450VP2000U -SHRA FG FEW001 SCT002 BKN003 22/22 Q1006 RMK 1ST001 3ST002 5ST003 A2973
SPECI RJFG 140923Z 09006KT 030V130 1500 R31/0800VP2000U -SHRA PRFG BR FEW001 SCT002 BKN003 22/22 Q1006 RMK 1ST001 3ST002 5ST003 A2973 FG SE
SPECI RJFG 142310Z 09009KT 050V120 1000 R31/0800V1600D SHRA BR FEW001 SCT002 BKN005 23/23 Q1002 RMK 1ST001 3ST002 5ST005 A2961
SPECI RJFG 142338Z VRB04KT 1500 R31/1200VP2000U +SHRA BR FEW001 SCT002 BKN006 23/23 Q1002 RMK 1ST001 3ST002 5ST006 A2961 RI++
METAR RJFG 142330Z 08008KT 340V130 1500 R31/1100VP2000U SHRA BR FEW001 SCT002 BKN006 23/23 Q1002 RMK 1ST001 3ST002 5ST006 A2961
SPECI RJFG 142348Z 09008KT 040V130 1500 R31/0800V1600D SHRA BR FEW001 SCT002 BKN004 23/23 Q1002 RMK 1ST001 3ST002 5ST004 A2961
METAR RJFG 150000Z 11009KT 060V140 1000 R31/0650V1500N SHRA BR FEW001 SCT002 BKN004 23/23 Q1002 RMK 1ST001 3ST002 5ST004 A2961
SPECI RJFG 150031Z VRB02KT 1000 R31/1000V2000U -SHRA BR FEW001 SCT002 BKN003 23/23 Q1002 RMK 1ST001 3ST002 5ST003 A2961
METAR RJFG 150100Z VRB02KT 3000 R31/0750VP2000U -SHRA BR FEW001 SCT002 BKN003 23/23 Q1002 RMK 1ST001 3ST002 5ST003 A2961
SPECI RJFG 150121Z 35006KT 300V040 9999 -SHRA FEW001 SCT002 BKN004 23/23 Q1002 RMK 1ST001 3ST002 5ST004 A2961
METAR RJFG 150200Z 04003KT 310V090 9999 -SHRA FEW002 SCT004 BKN010 24/24 Q1002 RMK 1ST002 3ST004 5CU010 A2960
SPECI RJFG 150226Z 07003KT 020V120 9999 -SHRA FEW004 SCT010 BKN020 24/24 Q1002 RMK 1ST004 3CU010 5CU020 A2961
METAR RJFG 150300Z 36004KT 290V080 9999 -SHRA FEW003 SCT010 BKN100 24/24 Q1002 RMK 1ST003 4CU010 5AC100 A2961
METAR RJFG 150400Z 29006KT 9999 -SHRA FEW003 BKN030 BKN070 24/23 Q1003 RMK 1ST003 5CU030 6AC070 A2962
METAR RJFG 150500Z 27005KT 240V300 9999 -SHRA FEW003 BKN015 BKN100 24/23 Q1003 RMK 1ST003 6CU015 7AC100 A2963
METAR RJFG 150600Z 26006KT 9999 -SHRA FEW003 SCT009 BKN011 24/23 Q1003 RMK 1ST003 3CU009 6CU011 A2963
SPECI RJFG 150610Z 26005KT 9999 -SHRA FEW005 SCT007 BKN009 24/23 Q1003 RMK 1ST005 3ST007 5CU009 A2964
SPECI RJFG 150636Z 26006KT 3000 -SHRA BR FEW003 BKN005 BKN009 24/23 Q1003 RMK 1ST003 5ST005 7CU009 A2964
SPECI RJFG 150643Z 26006KT 230V290 2000 SHRA PRFG BR FEW001 SCT003 BKN005 23/23 Q1003 RMK 1ST001 3ST003 5ST005 A2964 FG SE-S
METAR RJFG 150700Z 26011KT 220V280 2000 R31/1500VP2000N SHRA PRFG BR FEW001 SCT002 BKN005 23/22 Q1003 RMK 1ST001 3ST002 5ST005 A2964 FG SE-S
SPECI RJFG 150709Z 26011KT 2000 R31/1300VP2000U -SHRA PRFG BR FEW001 SCT002 BKN003 22/22 Q1003 RMK 1ST001 3ST002 5ST003 A2964 FG W
SPECI RJFG 150726Z 26010KT 3000 SHRA BR FEW001 SCT003 BKN007 22/21 Q1003 RMK 1ST001 3ST003 5ST007 A2964
SPECI RJFG 150733Z 26010KT 1000 R31/P2000N SHRA PRFG BR FEW001 SCT002 BKN003 22/22 Q1004 RMK 1ST001 3ST002 5ST003 A2965 FG SW-NW
SPECI RJFG 150740Z 26009KT 0300 R31/0750VP2000D SHRA FG FEW000 SCT001 BKN002 22/22 Q1003 RMK 1ST000 3ST001 5ST002 A2964
SPECI RJFG 150744Z 26009KT 0200 R31/0500VP2000D SHRA FG VV001 22/22 Q1003 RMK A2964
SPECI RJFG 150748Z 26008KT 0100 R31/0400V0900D SHRA FG VV001 22/22 Q1003 RMK A2964
METAR RJFG 150800Z 27007KT 1500 R31/0600VP2000U -SHRA PRFG BR FEW001 SCT002 BKN003 22/22 Q1003 RMK 1ST001 3ST002 5ST003 A2964 FG SE-S
SPECI RJFG 150807Z 26005KT 3000 -SHRA BR FEW002 BKN015 BKN100 22/22 Q1003 RMK 1ST002 6CU015 7AC100 A2964
SPECI RJFG 150835Z 21003KT 180V250 9999 FEW001 SCT003 BKN020 22/22 Q1004 RMK 1ST001 3ST003 5CU020 A2966
METAR RJFG 150900Z 25003KT 9999 FEW001 BKN020 22/22 Q1004 RMK 1ST001 7CU020 A2966

■ TAF(飛行場予報)


				

お知らせ

新着情報

  • 太陽光発電量推算
  • 気象予報士試験過去問・講座
  • Yahoo Weather shop
  • メルカリ Weather shop
  • BASE Weather shop

ご案内